This is the latest recevied weather packets stored in our database for station/object S54Z-11. If no packets are shown the sender has not sent any weather packets the latest 10 day(s).
| Time | Temp. | Humidity | Pressure | Rain* | Wind** | Luminosity | Snow |
|---|---|---|---|---|---|---|---|
| 1778072982 | 19.44° C | 55% | 1013.2 hPa | - | - | - | - |
| 1778072082 | 20° C | 55% | 1013.2 hPa | - | - | - | - |
| 1778071182 | 18.89° C | 60% | 1013.4 hPa | - | - | - | - |
| 1778070282 | 19.44° C | 55% | 1013.5 hPa | - | - | - | - |
| 1778069382 | 18.89° C | 56% | 1013.5 hPa | - | - | - | - |
| 1778068482 | 19.44° C | 54% | 1013.6 hPa | - | - | - | - |
| 1778067582 | 20.56° C | 51% | 1013.7 hPa | - | - | - | - |
| 1778066681 | 20° C | 52% | 1013.6 hPa | - | - | - | - |
| 1778065782 | 20° C | 53% | 1013.8 hPa | - | - | - | - |
| 1778064881 | 21.67° C | 48% | 1013.7 hPa | - | - | - | - |
| 1778063982 | 21.67° C | 46% | 1013.8 hPa | - | - | - | - |
| 1778063081 | 21.11° C | 50% | 1013.8 hPa | - | - | - | - |
| 1778062181 | 21.67° C | 49% | 1013.9 hPa | - | - | - | - |
| 1778061281 | 21.11° C | 49% | 1014 hPa | - | - | - | - |
| 1778060381 | 23.33° C | 47% | 1013.6 hPa | - | - | - | - |
| 1778059481 | 22.22° C | 49% | 1013.6 hPa | - | - | - | - |
| 1778058581 | 20.56° C | 50% | 1013.6 hPa | - | - | - | - |
| 1778057681 | 21.67° C | 50% | 1013.4 hPa | - | - | - | - |
| 1778056781 | 21.11° C | 51% | 1013.3 hPa | - | - | - | - |
| 1778055881 | 22.22° C | 47% | 1013.5 hPa | - | - | - | - |
| 1778054981 | 21.11° C | 49% | 1013.5 hPa | - | - | - | - |
| 1778054080 | 22.78° C | 47% | 1013.1 hPa | - | - | - | - |
| 1778053184 | 21.11° C | 50% | 1013.4 hPa | - | - | - | - |
| 1778052284 | 20.56° C | 52% | 1013.4 hPa | - | - | - | - |
| 1778051383 | 20° C | 53% | 1013.6 hPa | - | - | - | - |
* Rain since midnight (hover to see other rain measurements)
** Current wind speed in m/s (hover to see current wind gust speed)